createdAt,value
2023-03-19T00:02:25.030Z,53.21
2023-03-19T00:05:28.429Z,53.42
2023-03-19T00:08:31.476Z,53.68
2023-03-19T00:11:34.761Z,53.62
2023-03-19T00:14:38.236Z,53.36
2023-03-19T00:17:43.228Z,53.32
2023-03-19T00:20:46.920Z,53.53
2023-03-19T00:23:50.467Z,53.54
2023-03-19T00:26:53.604Z,53.68
2023-03-19T00:29:57.462Z,53.55
2023-03-19T00:33:00.593Z,54.08
2023-03-19T00:36:04.570Z,53.29
2023-03-19T00:39:09.041Z,53.54
2023-03-19T00:42:13.645Z,53.58
2023-03-19T00:45:16.897Z,53.34
2023-03-19T00:48:21.596Z,52.86
2023-03-19T00:51:25.056Z,52.69
2023-03-19T00:54:28.341Z,52.86
2023-03-19T00:57:32.878Z,52.93
2023-03-19T01:00:36.851Z,52.77
2023-03-19T01:03:39.861Z,52.79
2023-03-19T01:06:43.135Z,52.63
2023-03-19T01:09:46.825Z,52.54
2023-03-19T01:12:50.484Z,52.74
2023-03-19T01:15:54.056Z,53.19
2023-03-19T01:19:00.612Z,52.90
2023-03-19T01:22:04.610Z,52.58
2023-03-19T01:25:09.312Z,52.55
2023-03-19T01:28:12.844Z,52.55
2023-03-19T01:31:16.821Z,52.61
2023-03-19T01:34:20.109Z,52.77
2023-03-19T01:37:24.829Z,52.42
2023-03-19T01:40:29.447Z,52.53
2023-03-19T01:43:32.932Z,52.44
2023-03-19T01:46:39.015Z,52.84
2023-03-19T01:49:55.415Z,53.48
2023-03-19T01:52:58.526Z,53.02
2023-03-19T01:56:10.559Z,54.20
2023-03-19T01:59:26.439Z,54.00
2023-03-19T02:02:35.115Z,55.29
2023-03-19T02:05:39.397Z,55.01
2023-03-19T02:08:43.165Z,55.63
2023-03-19T02:11:46.645Z,56.40
2023-03-19T02:14:49.550Z,57.56
2023-03-19T02:17:52.889Z,58.36
2023-03-19T02:21:02.401Z,59.25
2023-03-19T02:24:29.184Z,59.53
2023-03-19T02:27:33.023Z,59.95
2023-03-19T02:30:36.884Z,59.65
2023-03-19T02:33:41.163Z,59.43
2023-03-19T02:36:48.030Z,59.93
2023-03-19T02:39:52.477Z,60.33
2023-03-19T02:42:55.714Z,60.06
2023-03-19T02:45:59.241Z,60.70
2023-03-19T02:49:02.621Z,60.20
2023-03-19T02:52:05.936Z,60.81
2023-03-19T02:55:09.688Z,60.86
2023-03-19T02:58:12.894Z,60.16
2023-03-19T03:01:16.246Z,59.70
2023-03-19T03:04:19.391Z,60.15
2023-03-19T03:07:23.119Z,59.90
2023-03-19T03:10:26.165Z,60.87
2023-03-19T03:13:29.902Z,61.61
2023-03-19T03:16:33.277Z,61.60
2023-03-19T03:19:36.737Z,61.59
2023-03-19T03:22:40.399Z,61.71
2023-03-19T03:25:43.828Z,62.25
2023-03-19T03:28:47.685Z,62.53
2023-03-19T03:31:52.453Z,62.71
2023-03-19T03:34:55.615Z,63.13
2023-03-19T03:37:59.826Z,63.00
2023-03-19T03:41:03.268Z,63.23
2023-03-19T03:44:06.929Z,62.89
2023-03-19T03:47:10.139Z,63.96
2023-03-19T03:50:14.025Z,64.13
2023-03-19T03:53:17.092Z,64.75
2023-03-19T03:56:20.617Z,64.08
2023-03-19T03:59:25.429Z,63.27
2023-03-19T04:02:28.823Z,64.52
2023-03-19T04:05:32.451Z,64.63
2023-03-19T04:08:35.406Z,64.72
2023-03-19T04:11:39.785Z,64.21
2023-03-19T04:14:43.189Z,63.88
2023-03-19T04:17:46.493Z,63.50
2023-03-19T04:20:51.664Z,63.28
2023-03-19T04:23:55.001Z,63.52
2023-03-19T04:26:58.715Z,64.91
2023-03-19T04:30:02.586Z,65.58
2023-03-19T04:33:07.200Z,66.77
2023-03-19T04:36:10.544Z,67.48
2023-03-19T04:39:13.773Z,68.32
2023-03-19T04:42:17.209Z,68.60
2023-03-19T04:45:20.707Z,68.03
2023-03-19T04:48:24.176Z,68.46
2023-03-19T04:51:28.357Z,68.59
2023-03-19T04:54:32.388Z,67.61
2023-03-19T04:57:35.674Z,66.51
2023-03-19T05:00:38.930Z,66.13
2023-03-19T05:03:42.134Z,66.15
2023-03-19T05:06:45.433Z,66.36
2023-03-19T05:09:48.579Z,66.89
2023-03-19T05:12:52.412Z,66.79
2023-03-19T05:15:56.076Z,66.49
2023-03-19T05:18:59.597Z,66.63
2023-03-19T05:22:02.992Z,67.24
2023-03-19T05:25:07.060Z,67.48
2023-03-19T05:28:10.331Z,67.82
2023-03-19T05:31:13.779Z,67.60
2023-03-19T05:34:17.663Z,67.57
2023-03-19T05:37:21.898Z,66.98
2023-03-19T05:40:25.730Z,66.99
2023-03-19T05:43:29.907Z,67.00
2023-03-19T05:46:33.950Z,68.13
2023-03-19T05:49:37.463Z,67.21
2023-03-19T05:52:40.463Z,66.69
2023-03-19T05:55:44.626Z,66.14
2023-03-19T05:58:47.625Z,65.91
2023-03-19T06:01:52.290Z,65.52
2023-03-19T06:04:56.690Z,65.06
2023-03-19T06:08:00.766Z,64.88
2023-03-19T06:11:05.130Z,64.65
2023-03-19T06:14:09.154Z,64.07
2023-03-19T06:17:13.415Z,64.57
2023-03-19T06:20:16.899Z,63.64
2023-03-19T06:23:20.718Z,63.11
2023-03-19T06:26:24.277Z,62.15
2023-03-19T06:29:27.707Z,61.45
2023-03-19T06:32:31.655Z,60.96
2023-03-19T06:35:37.148Z,59.93
2023-03-19T06:38:40.186Z,58.90
2023-03-19T06:41:43.346Z,57.98
2023-03-19T06:44:46.620Z,57.77
2023-03-19T06:47:51.664Z,57.27
2023-03-19T06:50:56.103Z,56.79
2023-03-19T06:53:59.726Z,56.22
2023-03-19T06:57:02.690Z,55.54
2023-03-19T07:00:07.542Z,55.96
2023-03-19T07:03:12.397Z,56.71
2023-03-19T07:06:15.588Z,57.37
2023-03-19T07:09:18.541Z,57.17
2023-03-19T07:12:21.982Z,57.48
2023-03-19T07:15:24.968Z,57.21
2023-03-19T07:18:28.553Z,56.59
2023-03-19T07:21:31.532Z,56.59
2023-03-19T07:24:34.769Z,56.64
2023-03-19T07:27:37.679Z,56.55
2023-03-19T07:30:40.967Z,56.55
2023-03-19T07:33:43.931Z,56.18
2023-03-19T07:36:47.514Z,56.25
2023-03-19T07:39:55.660Z,55.72
2023-03-19T07:42:59.184Z,55.06
2023-03-19T07:46:02.125Z,54.03
2023-03-19T07:49:06.108Z,54.89
2023-03-19T07:52:09.516Z,52.88
2023-03-19T07:55:12.736Z,53.40
2023-03-19T07:58:16.566Z,53.77
2023-03-19T08:01:20.258Z,52.36
2023-03-19T08:04:24.288Z,51.64
2023-03-19T08:07:27.497Z,51.68
2023-03-19T08:10:31.008Z,50.00
2023-03-19T08:13:33.928Z,49.54
2023-03-19T08:16:37.286Z,49.70
2023-03-19T08:19:40.383Z,49.57
2023-03-19T08:22:43.984Z,49.89
2023-03-19T08:25:47.126Z,49.67
2023-03-19T08:28:51.703Z,49.27
2023-03-19T08:31:55.010Z,48.01
2023-03-19T08:34:59.292Z,47.35
2023-03-19T08:38:02.316Z,47.65
2023-03-19T08:41:06.379Z,47.61
2023-03-19T08:44:09.692Z,47.15
2023-03-19T08:47:20.560Z,47.78
2023-03-19T08:50:23.447Z,47.24
2023-03-19T08:53:26.800Z,47.03
2023-03-19T08:56:29.781Z,46.77
2023-03-19T08:59:34.297Z,45.82
2023-03-19T09:02:37.335Z,44.65
2023-03-19T09:05:40.732Z,44.30
2023-03-19T09:08:44.885Z,43.70
2023-03-19T09:11:48.762Z,44.67
2023-03-19T09:14:51.924Z,42.31
2023-03-19T09:17:55.549Z,42.68
2023-03-19T09:20:58.664Z,42.67
2023-03-19T09:24:03.557Z,42.38
2023-03-19T09:27:07.982Z,41.57
2023-03-19T09:30:11.903Z,42.07
2023-03-19T09:33:16.470Z,42.67
2023-03-19T09:36:20.884Z,39.87
2023-03-19T09:39:23.918Z,40.47
2023-03-19T09:42:50.301Z,39.74
2023-03-19T09:45:53.291Z,39.83
2023-03-19T09:49:18.262Z,39.26
2023-03-19T09:52:44.582Z,39.32
2023-03-19T09:55:49.896Z,38.58
2023-03-19T09:58:52.994Z,37.82
2023-03-19T10:02:18.463Z,38.61
2023-03-19T10:05:37.044Z,38.33
2023-03-19T10:08:42.802Z,37.64
2023-03-19T10:11:59.396Z,37.41
2023-03-19T10:15:33.328Z,37.55
2023-03-19T10:18:39.543Z,37.71
2023-03-19T10:21:52.210Z,36.88
2023-03-19T10:24:57.365Z,37.33
2023-03-19T10:28:08.239Z,37.23
2023-03-19T10:31:26.484Z,37.79
2023-03-19T10:34:33.768Z,36.78
2023-03-19T10:37:37.422Z,36.47
2023-03-19T10:40:52.133Z,36.07
2023-03-19T10:44:00.169Z,35.73
2023-03-19T10:47:15.165Z,36.77
2023-03-19T10:50:19.555Z,35.93
2023-03-19T10:53:29.771Z,35.96
2023-03-19T10:56:34.623Z,35.73
2023-03-19T10:59:38.527Z,35.68
2023-03-19T11:02:48.585Z,34.67
2023-03-19T11:06:08.128Z,34.83
2023-03-19T11:09:20.628Z,33.55
2023-03-19T11:12:42.712Z,33.49
2023-03-19T11:15:48.113Z,33.74
2023-03-19T11:18:51.157Z,33.29
2023-03-19T11:22:20.841Z,32.72
2023-03-19T11:25:30.184Z,32.55
2023-03-19T11:28:34.041Z,32.92
2023-03-19T11:31:54.996Z,31.52
2023-03-19T11:35:11.992Z,30.87
2023-03-19T11:38:31.210Z,31.74
2023-03-19T11:42:13.782Z,30.73
2023-03-19T11:45:38.567Z,30.10
2023-03-19T11:49:00.760Z,29.00
2023-03-19T11:52:18.836Z,28.73
2023-03-19T11:55:42.612Z,28.62
2023-03-19T11:59:01.421Z,27.80
2023-03-19T12:02:23.060Z,29.36
2023-03-19T12:05:33.933Z,28.14
2023-03-19T12:08:42.488Z,28.23
2023-03-19T12:11:58.923Z,27.41
2023-03-19T12:15:30.506Z,27.73
2023-03-19T12:18:50.248Z,26.28
2023-03-19T12:22:12.044Z,25.22
2023-03-19T12:25:30.412Z,25.60
2023-03-19T12:28:36.113Z,25.40
2023-03-19T12:31:55.127Z,23.47
2023-03-19T12:35:02.654Z,23.51
2023-03-19T12:38:18.113Z,24.09
2023-03-19T12:41:31.666Z,24.52
2023-03-19T12:44:38.358Z,23.43
2023-03-19T12:47:43.026Z,24.77
2023-03-19T12:50:50.060Z,21.98
2023-03-19T12:53:57.686Z,20.57
2023-03-19T12:57:12.180Z,23.86
2023-03-19T13:00:46.586Z,24.09
2023-03-19T13:03:58.621Z,22.27
2023-03-19T13:07:16.990Z,21.56
2023-03-19T13:10:21.868Z,20.86
2023-03-19T13:13:34.392Z,18.76
2023-03-19T13:16:50.684Z,18.27
2023-03-19T13:19:56.414Z,16.48
2023-03-19T13:23:04.694Z,17.87
2023-03-19T13:26:12.773Z,16.49
2023-03-19T13:29:23.258Z,15.26
2023-03-19T13:32:42.323Z,15.24
2023-03-19T13:35:52.505Z,17.37
2023-03-19T13:38:56.077Z,16.45
2023-03-19T13:42:18.141Z,15.51
2023-03-19T13:45:31.903Z,19.35
2023-03-19T13:48:57.738Z,21.38
2023-03-19T13:52:04.816Z,18.63
2023-03-19T13:55:23.617Z,20.59
2023-03-19T13:58:47.023Z,22.28
2023-03-19T14:01:50.977Z,23.73
2023-03-19T14:05:04.778Z,24.39
2023-03-19T14:08:18.619Z,25.23
2023-03-19T14:11:29.445Z,25.91
2023-03-19T14:14:32.571Z,27.24
2023-03-19T14:17:42.018Z,26.77
2023-03-19T14:20:59.195Z,26.78
2023-03-19T14:24:55.416Z,27.16
2023-03-19T14:28:00.821Z,26.26
2023-03-19T14:31:04.775Z,26.95
2023-03-19T14:34:27.841Z,28.03
2023-03-19T14:37:38.174Z,27.04
2023-03-19T14:40:47.577Z,24.74
2023-03-19T14:44:15.974Z,23.80
2023-03-19T14:48:02.425Z,21.54
2023-03-19T14:51:20.946Z,19.59
2023-03-19T14:54:48.510Z,19.01
2023-03-19T14:57:52.297Z,18.42
2023-03-19T15:00:57.166Z,19.50
2023-03-19T15:04:09.657Z,21.29
2023-03-19T15:07:20.351Z,21.80
2023-03-19T15:10:33.427Z,22.46
2023-03-19T15:13:58.574Z,24.06
2023-03-19T15:17:02.254Z,24.99
2023-03-19T15:20:22.052Z,26.14
2023-03-19T15:23:28.937Z,27.85
2023-03-19T15:26:36.699Z,27.47
2023-03-19T15:29:41.592Z,27.48
2023-03-19T15:32:56.689Z,28.54
2023-03-19T15:36:24.419Z,29.14
2023-03-19T15:39:30.203Z,29.92
2023-03-19T15:42:34.376Z,31.36
2023-03-19T15:45:40.043Z,30.58
2023-03-19T15:49:03.115Z,30.41
2023-03-19T15:52:11.807Z,31.04
2023-03-19T15:55:17.233Z,30.51
2023-03-19T15:58:30.547Z,30.83
2023-03-19T16:01:36.638Z,30.97
2023-03-19T16:05:20.389Z,31.65
2023-03-19T16:08:23.151Z,31.50
2023-03-19T16:11:28.318Z,31.87
2023-03-19T16:14:47.462Z,32.33
2023-03-19T16:17:53.356Z,32.33
2023-03-19T16:21:10.674Z,32.35
2023-03-19T16:24:28.179Z,34.60
2023-03-19T16:27:35.718Z,35.08
2023-03-19T16:30:47.499Z,34.97
2023-03-19T16:33:58.209Z,36.09
2023-03-19T16:37:04.094Z,35.71
2023-03-19T16:40:13.886Z,36.29
2023-03-19T16:43:19.408Z,37.01
2023-03-19T16:46:24.798Z,37.00
2023-03-19T16:49:29.760Z,37.80
2023-03-19T16:52:34.353Z,37.42
2023-03-19T16:55:42.533Z,38.17
2023-03-19T16:58:48.993Z,38.70
2023-03-19T17:01:54.026Z,38.79
2023-03-19T17:04:58.564Z,39.75
2023-03-19T17:08:03.080Z,39.23
2023-03-19T17:11:09.337Z,39.47
2023-03-19T17:14:21.844Z,40.17
2023-03-19T17:17:27.475Z,40.08
2023-03-19T17:20:35.362Z,40.50
2023-03-19T17:23:41.031Z,41.85
2023-03-19T17:26:46.542Z,41.74
2023-03-19T17:29:51.631Z,41.92
2023-03-19T17:33:00.118Z,41.54
2023-03-19T17:36:08.150Z,41.71
2023-03-19T17:39:12.572Z,41.54
2023-03-19T17:42:20.431Z,40.81
2023-03-19T17:45:30.575Z,40.51
2023-03-19T17:48:34.990Z,40.30
2023-03-19T17:51:56.612Z,40.32
2023-03-19T17:55:04.146Z,40.97
2023-03-19T17:58:18.550Z,40.56
2023-03-19T18:01:28.169Z,40.59
2023-03-19T18:04:36.252Z,40.99
2023-03-19T18:07:41.000Z,40.42
2023-03-19T18:10:46.563Z,40.97
2023-03-19T18:13:51.985Z,40.50
2023-03-19T18:16:59.893Z,40.66
2023-03-19T18:20:05.128Z,40.86
2023-03-19T18:23:11.610Z,40.83
2023-03-19T18:26:17.797Z,41.22
2023-03-19T18:29:24.029Z,41.60
2023-03-19T18:32:31.582Z,41.73
2023-03-19T18:35:40.966Z,41.40
2023-03-19T18:38:46.117Z,40.77
2023-03-19T18:41:54.388Z,40.44
2023-03-19T18:44:59.597Z,39.99
2023-03-19T18:48:25.063Z,40.48
2023-03-19T18:51:30.069Z,41.06
2023-03-19T18:54:36.228Z,41.31
2023-03-19T18:57:52.654Z,41.06
2023-03-19T19:00:59.138Z,40.84
2023-03-19T19:04:04.949Z,41.31
2023-03-19T19:07:18.361Z,41.01
2023-03-19T19:10:24.161Z,41.09
2023-03-19T19:13:55.249Z,41.25
2023-03-19T19:17:01.735Z,41.39
2023-03-19T19:20:07.392Z,41.42
2023-03-19T19:23:12.498Z,41.39
2023-03-19T19:26:25.742Z,41.53
2023-03-19T19:29:30.822Z,42.33
2023-03-19T19:32:37.104Z,41.83
2023-03-19T19:35:41.392Z,41.69
2023-03-19T19:38:49.363Z,41.89
2023-03-19T19:41:59.778Z,42.20
2023-03-19T19:45:05.641Z,41.82
2023-03-19T19:48:19.371Z,42.52
2023-03-19T19:51:27.662Z,42.46
2023-03-19T19:54:32.671Z,41.81
2023-03-19T19:57:39.824Z,41.61
2023-03-19T20:00:50.316Z,41.90
2023-03-19T20:04:07.345Z,41.76
2023-03-19T20:07:11.937Z,42.04
2023-03-19T20:10:16.946Z,42.80
2023-03-19T20:13:24.283Z,42.09
2023-03-19T20:16:30.782Z,42.57
2023-03-19T20:19:35.176Z,42.55
2023-03-19T20:22:41.758Z,43.04
2023-03-19T20:25:47.651Z,42.96
2023-03-19T20:28:55.531Z,42.69
2023-03-19T20:32:03.958Z,42.88
2023-03-19T20:35:17.551Z,42.38
2023-03-19T20:38:23.746Z,42.30
2023-03-19T20:41:28.840Z,42.45
2023-03-19T20:44:38.210Z,41.95
2023-03-19T20:47:49.102Z,42.30
2023-03-19T20:50:53.294Z,41.99
2023-03-19T20:53:59.768Z,42.12
2023-03-19T20:57:04.943Z,42.47
2023-03-19T21:00:17.538Z,42.49
2023-03-19T21:03:24.767Z,42.39
2023-03-19T21:06:36.795Z,42.63
2023-03-19T21:09:51.312Z,43.38
2023-03-19T21:12:58.828Z,43.83
2023-03-19T21:16:03.380Z,43.55
2023-03-19T21:19:08.266Z,43.15
2023-03-19T21:22:22.351Z,43.47
2023-03-19T21:25:30.881Z,43.42
2023-03-19T21:28:36.953Z,42.97
2023-03-19T21:31:42.571Z,43.57
2023-03-19T21:34:49.311Z,43.74
2023-03-19T21:37:54.860Z,43.23
2023-03-19T21:41:00.543Z,43.87
2023-03-19T21:44:07.915Z,44.19
2023-03-19T21:47:13.563Z,44.34
2023-03-19T21:50:19.723Z,43.79
2023-03-19T21:53:22.955Z,44.10
2023-03-19T21:56:34.258Z,44.21
2023-03-19T21:59:38.806Z,44.60
2023-03-19T22:02:44.376Z,44.70
2023-03-19T22:05:51.986Z,44.97
2023-03-19T22:08:55.365Z,44.79
2023-03-19T22:11:58.678Z,44.36
2023-03-19T22:15:02.724Z,43.81
2023-03-19T22:18:11.523Z,44.36
2023-03-19T22:21:19.527Z,44.75
2023-03-19T22:24:23.359Z,45.14
2023-03-19T22:27:26.303Z,44.90
2023-03-19T22:30:35.798Z,44.86
2023-03-19T22:33:39.883Z,45.29
2023-03-19T22:36:43.807Z,45.19
2023-03-19T22:39:47.063Z,45.79
2023-03-19T22:42:50.380Z,45.15
2023-03-19T22:46:04.074Z,45.43
2023-03-19T22:49:14.091Z,45.63
2023-03-19T22:52:17.004Z,45.53
2023-03-19T22:55:20.925Z,45.58
2023-03-19T22:58:25.091Z,45.36
2023-03-19T23:01:43.619Z,45.89
2023-03-19T23:04:46.695Z,46.04
2023-03-19T23:07:49.990Z,46.41
2023-03-19T23:10:53.519Z,46.42
2023-03-19T23:13:56.913Z,46.96
2023-03-19T23:17:19.769Z,46.32
2023-03-19T23:20:24.230Z,46.17
2023-03-19T23:23:28.239Z,47.84
2023-03-19T23:26:34.591Z,46.78
2023-03-19T23:29:41.077Z,47.06
2023-03-19T23:32:44.294Z,48.48
2023-03-19T23:35:48.193Z,46.95
2023-03-19T23:38:51.836Z,47.46
2023-03-19T23:41:57.089Z,47.49
2023-03-19T23:45:03.787Z,47.77
2023-03-19T23:48:31.333Z,47.90
2023-03-19T23:51:34.462Z,47.29
2023-03-19T23:54:38.001Z,47.90
2023-03-19T23:57:42.668Z,48.33
